sensor_id;sensor_type;location;lat;lon;timestamp;pressure;altitude;pressure_sealevel;temperature
75658;BMP280;64255;49.892;17.884;2023-04-25T00:01:15;97747.16;;;10.38
75658;BMP280;64255;49.892;17.884;2023-04-25T00:04:02;97749.88;;;10.44
75658;BMP280;64255;49.892;17.884;2023-04-25T00:06:49;97748.16;;;10.41
75658;BMP280;64255;49.892;17.884;2023-04-25T00:09:35;97757.91;;;10.44
75658;BMP280;64255;49.892;17.884;2023-04-25T00:12:22;97758.50;;;10.16
75658;BMP280;64255;49.892;17.884;2023-04-25T00:15:09;97751.50;;;10.30
75658;BMP280;64255;49.892;17.884;2023-04-25T00:17:56;97762.47;;;9.88
75658;BMP280;64255;49.892;17.884;2023-04-25T00:20:43;97760.34;;;10.42
75658;BMP280;64255;49.892;17.884;2023-04-25T00:23:29;97764.41;;;10.31
75658;BMP280;64255;49.892;17.884;2023-04-25T00:26:16;97760.31;;;9.98
75658;BMP280;64255;49.892;17.884;2023-04-25T00:29:02;97760.25;;;10.30
75658;BMP280;64255;49.892;17.884;2023-04-25T00:31:49;97764.41;;;9.94
75658;BMP280;64255;49.892;17.884;2023-04-25T00:34:35;97758.50;;;10.16
75658;BMP280;64255;49.892;17.884;2023-04-25T00:37:22;97768.19;;;10.08
75658;BMP280;64255;49.892;17.884;2023-04-25T00:40:09;97771.09;;;10.59
75658;BMP280;64255;49.892;17.884;2023-04-25T00:42:55;97771.94;;;10.27
75658;BMP280;64255;49.892;17.884;2023-04-25T00:45:43;97777.03;;;10.31
75658;BMP280;64255;49.892;17.884;2023-04-25T00:48:29;97782.38;;;10.25
75658;BMP280;64255;49.892;17.884;2023-04-25T00:51:20;97774.75;;;10.61
75658;BMP280;64255;49.892;17.884;2023-04-25T00:54:07;97779.66;;;10.19
75658;BMP280;64255;49.892;17.884;2023-04-25T00:56:54;97777.28;;;10.27
75658;BMP280;64255;49.892;17.884;2023-04-25T00:59:45;97776.38;;;10.42
75658;BMP280;64255;49.892;17.884;2023-04-25T01:02:33;97781.25;;;10.43
75658;BMP280;64255;49.892;17.884;2023-04-25T01:05:19;97785.00;;;10.19
75658;BMP280;64255;49.892;17.884;2023-04-25T01:08:06;97783.75;;;10.15
75658;BMP280;64255;49.892;17.884;2023-04-25T01:10:52;97788.69;;;10.28
75658;BMP280;64255;49.892;17.884;2023-04-25T01:13:39;97777.72;;;9.82
75658;BMP280;64255;49.892;17.884;2023-04-25T01:16:26;97786.22;;;9.81
75658;BMP280;64255;49.892;17.884;2023-04-25T01:19:16;97790.09;;;9.80
75658;BMP280;64255;49.892;17.884;2023-04-25T01:22:03;97791.69;;;9.98
75658;BMP280;64255;49.892;17.884;2023-04-25T01:24:50;97793.44;;;9.75
75658;BMP280;64255;49.892;17.884;2023-04-25T01:27:37;97793.25;;;10.16
75658;BMP280;64255;49.892;17.884;2023-04-25T01:30:26;97792.06;;;10.17
75658;BMP280;64255;49.892;17.884;2023-04-25T01:33:14;97795.31;;;9.36
75658;BMP280;64255;49.892;17.884;2023-04-25T01:36:01;97794.31;;;9.92
75658;BMP280;64255;49.892;17.884;2023-04-25T01:38:48;97791.09;;;9.82
75658;BMP280;64255;49.892;17.884;2023-04-25T01:41:35;97797.41;;;9.53
75658;BMP280;64255;49.892;17.884;2023-04-25T01:44:22;97792.03;;;9.00
75658;BMP280;64255;49.892;17.884;2023-04-25T01:47:08;97796.03;;;9.37
75658;BMP280;64255;49.892;17.884;2023-04-25T01:49:55;97795.94;;;9.84
75658;BMP280;64255;49.892;17.884;2023-04-25T01:52:42;97796.69;;;9.52
75658;BMP280;64255;49.892;17.884;2023-04-25T01:55:29;97795.56;;;9.65
75658;BMP280;64255;49.892;17.884;2023-04-25T01:58:15;97794.75;;;9.59
75658;BMP280;64255;49.892;17.884;2023-04-25T02:01:02;97794.28;;;9.54
75658;BMP280;64255;49.892;17.884;2023-04-25T02:03:48;97792.63;;;9.63
75658;BMP280;64255;49.892;17.884;2023-04-25T02:06:35;97793.38;;;9.95
75658;BMP280;64255;49.892;17.884;2023-04-25T02:09:21;97801.34;;;9.90
75658;BMP280;64255;49.892;17.884;2023-04-25T02:12:10;97805.84;;;9.78
75658;BMP280;64255;49.892;17.884;2023-04-25T02:14:56;97805.69;;;9.55
75658;BMP280;64255;49.892;17.884;2023-04-25T02:17:43;97801.09;;;9.87
75658;BMP280;64255;49.892;17.884;2023-04-25T02:20:30;97812.06;;;9.63
75658;BMP280;64255;49.892;17.884;2023-04-25T02:23:16;97811.03;;;10.19
75658;BMP280;64255;49.892;17.884;2023-04-25T02:26:03;97809.00;;;10.08
75658;BMP280;64255;49.892;17.884;2023-04-25T02:28:50;97813.84;;;9.72
75658;BMP280;64255;49.892;17.884;2023-04-25T02:31:37;97803.78;;;9.61
75658;BMP280;64255;49.892;17.884;2023-04-25T02:34:23;97810.91;;;10.02
75658;BMP280;64255;49.892;17.884;2023-04-25T02:37:10;97813.97;;;10.21
75658;BMP280;64255;49.892;17.884;2023-04-25T02:39:56;97808.66;;;9.95
75658;BMP280;64255;49.892;17.884;2023-04-25T02:42:43;97810.50;;;10.15
75658;BMP280;64255;49.892;17.884;2023-04-25T02:45:29;97806.09;;;10.12
75658;BMP280;64255;49.892;17.884;2023-04-25T02:48:16;97794.63;;;10.00
75658;BMP280;64255;49.892;17.884;2023-04-25T02:51:02;97800.25;;;10.08
75658;BMP280;64255;49.892;17.884;2023-04-25T02:53:49;97808.34;;;10.19
75658;BMP280;64255;49.892;17.884;2023-04-25T02:56:35;97801.84;;;9.62
75658;BMP280;64255;49.892;17.884;2023-04-25T02:59:22;97802.19;;;10.07
75658;BMP280;64255;49.892;17.884;2023-04-25T03:02:09;97803.50;;;9.85
75658;BMP280;64255;49.892;17.884;2023-04-25T03:04:56;97799.66;;;8.87
75658;BMP280;64255;49.892;17.884;2023-04-25T03:07:42;97794.22;;;9.49
75658;BMP280;64255;49.892;17.884;2023-04-25T03:10:29;97788.34;;;9.45
75658;BMP280;64255;49.892;17.884;2023-04-25T03:13:15;97790.31;;;8.41
75658;BMP280;64255;49.892;17.884;2023-04-25T03:16:02;97787.41;;;9.27
75658;BMP280;64255;49.892;17.884;2023-04-25T03:18:48;97796.56;;;8.94
75658;BMP280;64255;49.892;17.884;2023-04-25T03:21:36;97786.75;;;8.65
75658;BMP280;64255;49.892;17.884;2023-04-25T03:24:22;97792.09;;;9.06
75658;BMP280;64255;49.892;17.884;2023-04-25T03:27:09;97790.91;;;9.33
75658;BMP280;64255;49.892;17.884;2023-04-25T03:29:56;97794.13;;;9.17
75658;BMP280;64255;49.892;17.884;2023-04-25T03:32:42;97797.94;;;9.10
75658;BMP280;64255;49.892;17.884;2023-04-25T03:35:28;97788.66;;;9.26
75658;BMP280;64255;49.892;17.884;2023-04-25T03:38:15;97792.91;;;9.18
75658;BMP280;64255;49.892;17.884;2023-04-25T03:41:03;97793.16;;;9.14
75658;BMP280;64255;49.892;17.884;2023-04-25T03:43:49;97788.81;;;8.96
75658;BMP280;64255;49.892;17.884;2023-04-25T03:46:36;97786.47;;;8.83
75658;BMP280;64255;49.892;17.884;2023-04-25T03:49:22;97786.44;;;9.25
75658;BMP280;64255;49.892;17.884;2023-04-25T03:52:09;97789.00;;;9.39
75658;BMP280;64255;49.892;17.884;2023-04-25T03:54:55;97791.91;;;9.36
75658;BMP280;64255;49.892;17.884;2023-04-25T03:57:42;97789.22;;;9.62
75658;BMP280;64255;49.892;17.884;2023-04-25T04:00:28;97801.13;;;9.35
75658;BMP280;64255;49.892;17.884;2023-04-25T04:03:15;97796.28;;;9.13
75658;BMP280;64255;49.892;17.884;2023-04-25T04:06:03;97796.53;;;9.15
75658;BMP280;64255;49.892;17.884;2023-04-25T04:08:50;97796.84;;;8.76
75658;BMP280;64255;49.892;17.884;2023-04-25T04:11:37;97809.75;;;9.03
75658;BMP280;64255;49.892;17.884;2023-04-25T04:14:24;97805.25;;;9.36
75658;BMP280;64255;49.892;17.884;2023-04-25T04:17:10;97804.22;;;9.54
75658;BMP280;64255;49.892;17.884;2023-04-25T04:19:57;97811.19;;;9.46
75658;BMP280;64255;49.892;17.884;2023-04-25T04:22:44;97805.63;;;9.23
75658;BMP280;64255;49.892;17.884;2023-04-25T04:25:30;97808.41;;;9.34
75658;BMP280;64255;49.892;17.884;2023-04-25T04:28:17;97818.34;;;9.34
75658;BMP280;64255;49.892;17.884;2023-04-25T04:31:03;97817.81;;;9.09
75658;BMP280;64255;49.892;17.884;2023-04-25T04:33:50;97814.50;;;9.14
75658;BMP280;64255;49.892;17.884;2023-04-25T04:36:36;97812.56;;;9.15
75658;BMP280;64255;49.892;17.884;2023-04-25T04:39:23;97818.72;;;9.00
75658;BMP280;64255;49.892;17.884;2023-04-25T04:42:09;97813.25;;;8.89
75658;BMP280;64255;49.892;17.884;2023-04-25T04:44:56;97819.25;;;9.04
75658;BMP280;64255;49.892;17.884;2023-04-25T04:47:42;97818.78;;;9.06
75658;BMP280;64255;49.892;17.884;2023-04-25T04:50:29;97819.88;;;8.79
75658;BMP280;64255;49.892;17.884;2023-04-25T04:53:15;97820.31;;;8.92
75658;BMP280;64255;49.892;17.884;2023-04-25T04:56:02;97819.59;;;8.92
75658;BMP280;64255;49.892;17.884;2023-04-25T04:58:48;97818.34;;;8.87
75658;BMP280;64255;49.892;17.884;2023-04-25T05:01:35;97821.34;;;8.95
75658;BMP280;64255;49.892;17.884;2023-04-25T05:04:21;97822.19;;;9.06
75658;BMP280;64255;49.892;17.884;2023-04-25T05:07:08;97825.00;;;8.97
75658;BMP280;64255;49.892;17.884;2023-04-25T05:09:54;97821.47;;;9.06
75658;BMP280;64255;49.892;17.884;2023-04-25T05:12:41;97823.78;;;8.98
75658;BMP280;64255;49.892;17.884;2023-04-25T05:15:27;97819.38;;;8.95
75658;BMP280;64255;49.892;17.884;2023-04-25T05:18:14;97819.41;;;9.21
75658;BMP280;64255;49.892;17.884;2023-04-25T05:21:00;97816.03;;;9.21
75658;BMP280;64255;49.892;17.884;2023-04-25T05:23:47;97826.13;;;9.37
75658;BMP280;64255;49.892;17.884;2023-04-25T05:26:33;97824.81;;;9.27
75658;BMP280;64255;49.892;17.884;2023-04-25T05:29:20;97824.94;;;9.38
75658;BMP280;64255;49.892;17.884;2023-04-25T05:32:06;97821.81;;;9.40
75658;BMP280;64255;49.892;17.884;2023-04-25T05:34:53;97828.25;;;9.54
75658;BMP280;64255;49.892;17.884;2023-04-25T05:37:39;97822.53;;;9.41
75658;BMP280;64255;49.892;17.884;2023-04-25T05:40:26;97826.94;;;9.44
75658;BMP280;64255;49.892;17.884;2023-04-25T05:43:12;97827.91;;;9.46
75658;BMP280;64255;49.892;17.884;2023-04-25T05:45:59;97825.16;;;9.61
75658;BMP280;64255;49.892;17.884;2023-04-25T05:48:45;97825.66;;;9.65
75658;BMP280;64255;49.892;17.884;2023-04-25T05:51:32;97825.22;;;9.67
75658;BMP280;64255;49.892;17.884;2023-04-25T05:54:18;97821.19;;;9.77
75658;BMP280;64255;49.892;17.884;2023-04-25T05:57:05;97839.41;;;9.79
75658;BMP280;64255;49.892;17.884;2023-04-25T05:59:52;97831.00;;;9.65
75658;BMP280;64255;49.892;17.884;2023-04-25T06:02:39;97841.69;;;9.65
75658;BMP280;64255;49.892;17.884;2023-04-25T06:05:26;97845.69;;;9.76
75658;BMP280;64255;49.892;17.884;2023-04-25T06:08:12;97834.84;;;9.85
75658;BMP280;64255;49.892;17.884;2023-04-25T06:10:59;97838.13;;;10.00
75658;BMP280;64255;49.892;17.884;2023-04-25T06:13:46;97829.13;;;9.98
75658;BMP280;64255;49.892;17.884;2023-04-25T06:16:32;97842.78;;;10.05
75658;BMP280;64255;49.892;17.884;2023-04-25T06:19:18;97827.78;;;10.19
75658;BMP280;64255;49.892;17.884;2023-04-25T06:22:05;97828.94;;;10.07
75658;BMP280;64255;49.892;17.884;2023-04-25T06:24:51;97828.47;;;10.09
75658;BMP280;64255;49.892;17.884;2023-04-25T06:27:38;97831.78;;;9.98
75658;BMP280;64255;49.892;17.884;2023-04-25T06:30:24;97837.47;;;9.79
75658;BMP280;64255;49.892;17.884;2023-04-25T06:33:11;97829.25;;;10.20
75658;BMP280;64255;49.892;17.884;2023-04-25T06:35:57;97832.47;;;9.66
75658;BMP280;64255;49.892;17.884;2023-04-25T06:38:44;97839.94;;;9.83
75658;BMP280;64255;49.892;17.884;2023-04-25T06:41:30;97832.50;;;9.98
75658;BMP280;64255;49.892;17.884;2023-04-25T06:44:16;97831.25;;;9.94
75658;BMP280;64255;49.892;17.884;2023-04-25T06:47:03;97832.06;;;10.00
75658;BMP280;64255;49.892;17.884;2023-04-25T06:49:50;97827.06;;;10.19
75658;BMP280;64255;49.892;17.884;2023-04-25T06:52:36;97830.69;;;9.84
75658;BMP280;64255;49.892;17.884;2023-04-25T06:55:22;97830.31;;;9.97
75658;BMP280;64255;49.892;17.884;2023-04-25T06:58:09;97826.66;;;9.94
75658;BMP280;64255;49.892;17.884;2023-04-25T07:00:55;97830.03;;;9.95
75658;BMP280;64255;49.892;17.884;2023-04-25T07:03:42;97826.66;;;9.94
75658;BMP280;64255;49.892;17.884;2023-04-25T07:06:28;97821.13;;;10.03
75658;BMP280;64255;49.892;17.884;2023-04-25T07:09:15;97828.03;;;10.16
75658;BMP280;64255;49.892;17.884;2023-04-25T07:12:01;97821.91;;;10.53
75658;BMP280;64255;49.892;17.884;2023-04-25T07:14:48;97824.75;;;10.32
75658;BMP280;64255;49.892;17.884;2023-04-25T07:17:34;97827.25;;;10.53
75658;BMP280;64255;49.892;17.884;2023-04-25T07:20:21;97821.09;;;10.84
75658;BMP280;64255;49.892;17.884;2023-04-25T07:23:07;97821.06;;;10.79
75658;BMP280;64255;49.892;17.884;2023-04-25T07:25:54;97830.41;;;11.12
75658;BMP280;64255;49.892;17.884;2023-04-25T07:28:40;97835.72;;;10.95
75658;BMP280;64255;49.892;17.884;2023-04-25T07:31:28;97835.50;;;11.04
75658;BMP280;64255;49.892;17.884;2023-04-25T07:34:14;97826.75;;;10.98
75658;BMP280;64255;49.892;17.884;2023-04-25T07:37:00;97832.16;;;11.15
75658;BMP280;64255;49.892;17.884;2023-04-25T07:39:47;97820.69;;;11.20
75658;BMP280;64255;49.892;17.884;2023-04-25T07:42:33;97824.03;;;10.92
75658;BMP280;64255;49.892;17.884;2023-04-25T07:45:20;97825.00;;;10.89
75658;BMP280;64255;49.892;17.884;2023-04-25T07:48:06;97820.34;;;10.90
75658;BMP280;64255;49.892;17.884;2023-04-25T07:50:53;97827.25;;;11.13
75658;BMP280;64255;49.892;17.884;2023-04-25T07:53:39;97820.63;;;10.86
75658;BMP280;64255;49.892;17.884;2023-04-25T07:56:25;97822.16;;;11.10
75658;BMP280;64255;49.892;17.884;2023-04-25T07:59:12;97835.28;;;11.08
75658;BMP280;64255;49.892;17.884;2023-04-25T08:01:58;97820.09;;;10.82
75658;BMP280;64255;49.892;17.884;2023-04-25T08:04:45;97828.22;;;11.04
75658;BMP280;64255;49.892;17.884;2023-04-25T08:07:31;97825.63;;;11.61
75658;BMP280;64255;49.892;17.884;2023-04-25T08:10:18;97819.25;;;12.04
75658;BMP280;64255;49.892;17.884;2023-04-25T08:13:04;97818.78;;;11.37
75658;BMP280;64255;49.892;17.884;2023-04-25T08:15:51;97813.44;;;11.37
75658;BMP280;64255;49.892;17.884;2023-04-25T08:18:37;97819.28;;;11.42
75658;BMP280;64255;49.892;17.884;2023-04-25T08:21:23;97814.66;;;11.42
75658;BMP280;64255;49.892;17.884;2023-04-25T08:24:10;97817.06;;;11.29
75658;BMP280;64255;49.892;17.884;2023-04-25T08:26:56;97819.94;;;11.08
75658;BMP280;64255;49.892;17.884;2023-04-25T08:29:43;97820.75;;;11.54
75658;BMP280;64255;49.892;17.884;2023-04-25T08:32:29;97828.78;;;11.60
75658;BMP280;64255;49.892;17.884;2023-04-25T08:35:16;97829.00;;;12.07
75658;BMP280;64255;49.892;17.884;2023-04-25T08:38:02;97829.53;;;11.60
75658;BMP280;64255;49.892;17.884;2023-04-25T08:40:50;97828.56;;;11.75
75658;BMP280;64255;49.892;17.884;2023-04-25T08:43:37;97822.19;;;11.61
75658;BMP280;64255;49.892;17.884;2023-04-25T08:46:28;97825.38;;;11.42
75658;BMP280;64255;49.892;17.884;2023-04-25T08:49:14;97825.13;;;11.34
75658;BMP280;64255;49.892;17.884;2023-04-25T08:52:04;97830.75;;;11.70
75658;BMP280;64255;49.892;17.884;2023-04-25T08:54:51;97826.84;;;11.77
75658;BMP280;64255;49.892;17.884;2023-04-25T08:57:41;97832.22;;;11.49
75658;BMP280;64255;49.892;17.884;2023-04-25T09:00:28;97828.31;;;11.50
75658;BMP280;64255;49.892;17.884;2023-04-25T09:03:16;97830.00;;;11.47
75658;BMP280;64255;49.892;17.884;2023-04-25T09:06:03;97835.59;;;11.61
75658;BMP280;64255;49.892;17.884;2023-04-25T09:08:50;97837.81;;;11.51
75658;BMP280;64255;49.892;17.884;2023-04-25T09:11:37;97829.03;;;11.79
75658;BMP280;64255;49.892;17.884;2023-04-25T09:14:24;97831.00;;;11.67
75658;BMP280;64255;49.892;17.884;2023-04-25T09:17:10;97831.97;;;11.86
75658;BMP280;64255;49.892;17.884;2023-04-25T09:20:11;97824.09;;;12.28
75658;BMP280;64255;49.892;17.884;2023-04-25T09:23:06;97820.91;;;12.41
75658;BMP280;64255;49.892;17.884;2023-04-25T09:25:54;97824.66;;;11.98
75658;BMP280;64255;49.892;17.884;2023-04-25T09:28:40;97824.66;;;11.98
75658;BMP280;64255;49.892;17.884;2023-04-25T09:31:26;97824.38;;;11.96
75658;BMP280;64255;49.892;17.884;2023-04-25T09:34:13;97834.59;;;12.15
75658;BMP280;64255;49.892;17.884;2023-04-25T09:37:02;97817.06;;;12.08
75658;BMP280;64255;49.892;17.884;2023-04-25T09:39:54;97820.97;;;12.18
75658;BMP280;64255;49.892;17.884;2023-04-25T09:42:41;97833.91;;;12.84
75658;BMP280;64255;49.892;17.884;2023-04-25T09:45:30;97828.78;;;12.16
75658;BMP280;64255;49.892;17.884;2023-04-25T09:48:22;97811.47;;;12.17
75658;BMP280;64255;49.892;17.884;2023-04-25T09:51:13;97819.22;;;12.32
75658;BMP280;64255;49.892;17.884;2023-04-25T09:54:00;97825.78;;;12.43
75658;BMP280;64255;49.892;17.884;2023-04-25T09:56:48;97826.09;;;12.86
75658;BMP280;64255;49.892;17.884;2023-04-25T09:59:42;97827.28;;;12.21
75658;BMP280;64255;49.892;17.884;2023-04-25T10:02:29;97817.06;;;12.08
75658;BMP280;64255;49.892;17.884;2023-04-25T10:05:17;97819.00;;;12.19
75658;BMP280;64255;49.892;17.884;2023-04-25T10:08:04;97816.25;;;12.42
75658;BMP280;64255;49.892;17.884;2023-04-25T10:10:51;97820.19;;;12.29
75658;BMP280;64255;49.892;17.884;2023-04-25T10:13:37;97819.53;;;12.06
75658;BMP280;64255;49.892;17.884;2023-04-25T10:16:25;97810.94;;;12.30
75658;BMP280;64255;49.892;17.884;2023-04-25T10:19:11;97816.13;;;11.83
75658;BMP280;64255;49.892;17.884;2023-04-25T10:22:11;97808.50;;;12.27
75658;BMP280;64255;49.892;17.884;2023-04-25T10:25:00;97813.69;;;11.91
75658;BMP280;64255;49.892;17.884;2023-04-25T10:27:47;97806.34;;;12.08
75658;BMP280;64255;49.892;17.884;2023-04-25T10:30:36;97803.56;;;12.42
75658;BMP280;64255;49.892;17.884;2023-04-25T10:33:39;97805.19;;;12.62
75658;BMP280;64255;49.892;17.884;2023-04-25T10:36:25;97800.59;;;12.57
75658;BMP280;64255;49.892;17.884;2023-04-25T10:39:12;97801.97;;;12.11
75658;BMP280;64255;49.892;17.884;2023-04-25T10:41:59;97802.13;;;12.35
75658;BMP280;64255;49.892;17.884;2023-04-25T10:45:04;97808.19;;;12.42
75658;BMP280;64255;49.892;17.884;2023-04-25T10:47:51;97803.75;;;12.61
75658;BMP280;64255;49.892;17.884;2023-04-25T10:50:38;97809.53;;;11.84
75658;BMP280;64255;49.892;17.884;2023-04-25T10:53:25;97805.84;;;12.04
75658;BMP280;64255;49.892;17.884;2023-04-25T10:56:20;97803.19;;;11.98
75658;BMP280;64255;49.892;17.884;2023-04-25T11:01:53;97793.16;;;12.16
75658;BMP280;64255;49.892;17.884;2023-04-25T11:04:40;97798.06;;;12.17
75658;BMP280;64255;49.892;17.884;2023-04-25T11:07:50;97797.25;;;12.40
75658;BMP280;64255;49.892;17.884;2023-04-25T11:10:36;97799.44;;;12.41
75658;BMP280;64255;49.892;17.884;2023-04-25T11:13:29;97794.50;;;12.98
75658;BMP280;64255;49.892;17.884;2023-04-25T11:16:17;97794.91;;;11.91
75658;BMP280;64255;49.892;17.884;2023-04-25T11:19:03;97794.91;;;11.85
75658;BMP280;64255;49.892;17.884;2023-04-25T11:21:51;97788.81;;;11.96
75658;BMP280;64255;49.892;17.884;2023-04-25T11:24:41;97790.72;;;12.12
75658;BMP280;64255;49.892;17.884;2023-04-25T11:27:27;97795.13;;;12.15
75658;BMP280;64255;49.892;17.884;2023-04-25T11:30:15;97802.88;;;12.19
75658;BMP280;64255;49.892;17.884;2023-04-25T11:33:01;97794.38;;;12.15
75658;BMP280;64255;49.892;17.884;2023-04-25T11:35:48;97801.00;;;11.85
75658;BMP280;64255;49.892;17.884;2023-04-25T11:38:34;97795.34;;;12.23
75658;BMP280;64255;49.892;17.884;2023-04-25T11:41:21;97794.69;;;11.71
75658;BMP280;64255;49.892;17.884;2023-04-25T11:44:08;97795.91;;;11.70
75658;BMP280;64255;49.892;17.884;2023-04-25T11:46:55;97802.72;;;11.71
75658;BMP280;64255;49.892;17.884;2023-04-25T11:49:41;97800.28;;;11.68
75658;BMP280;64255;49.892;17.884;2023-04-25T11:52:46;97800.50;;;12.04
75658;BMP280;64255;49.892;17.884;2023-04-25T11:55:33;97805.63;;;11.96
75658;BMP280;64255;49.892;17.884;2023-04-25T11:58:19;97792.69;;;12.12
75658;BMP280;64255;49.892;17.884;2023-04-25T12:01:06;97801.47;;;12.07
75658;BMP280;64255;49.892;17.884;2023-04-25T12:03:52;97793.47;;;11.56
75658;BMP280;64255;49.892;17.884;2023-04-25T12:06:40;97795.16;;;11.42
75658;BMP280;64255;49.892;17.884;2023-04-25T12:09:32;97788.84;;;11.50
75658;BMP280;64255;49.892;17.884;2023-04-25T12:12:19;97793.72;;;11.63
75658;BMP280;64255;49.892;17.884;2023-04-25T12:15:17;97797.81;;;11.98
75658;BMP280;64255;49.892;17.884;2023-04-25T12:18:03;97795.78;;;12.38
75658;BMP280;64255;49.892;17.884;2023-04-25T12:20:50;97804.88;;;12.13
75658;BMP280;64255;49.892;17.884;2023-04-25T12:23:39;97799.00;;;12.20
75658;BMP280;64255;49.892;17.884;2023-04-25T12:26:26;97795.25;;;12.51
75658;BMP280;64255;49.892;17.884;2023-04-25T12:29:20;97788.97;;;12.20
75658;BMP280;64255;49.892;17.884;2023-04-25T12:32:07;97791.66;;;12.20
75658;BMP280;64255;49.892;17.884;2023-04-25T12:34:54;97793.16;;;12.16
75658;BMP280;64255;49.892;17.884;2023-04-25T12:37:40;97793.06;;;12.44
75658;BMP280;64255;49.892;17.884;2023-04-25T12:40:27;97796.06;;;12.88
75658;BMP280;64255;49.892;17.884;2023-04-25T12:43:13;97797.97;;;12.40
75658;BMP280;64255;49.892;17.884;2023-04-25T12:46:00;97789.00;;;12.85
75658;BMP280;64255;49.892;17.884;2023-04-25T12:48:47;97785.44;;;12.60
75658;BMP280;64255;49.892;17.884;2023-04-25T12:51:34;97784.56;;;12.34
75658;BMP280;64255;49.892;17.884;2023-04-25T12:54:21;97785.34;;;12.77
75658;BMP280;64255;49.892;17.884;2023-04-25T12:57:07;97779.88;;;12.46
75658;BMP280;64255;49.892;17.884;2023-04-25T12:59:54;97775.09;;;12.81
75658;BMP280;64255;49.892;17.884;2023-04-25T13:02:40;97776.00;;;12.36
75658;BMP280;64255;49.892;17.884;2023-04-25T13:05:27;97781.78;;;12.57
75658;BMP280;64255;49.892;17.884;2023-04-25T13:08:13;97775.53;;;12.37
75658;BMP280;64255;49.892;17.884;2023-04-25T13:11:00;97778.97;;;12.27
75658;BMP280;64255;49.892;17.884;2023-04-25T13:13:46;97781.50;;;12.02
75658;BMP280;64255;49.892;17.884;2023-04-25T13:16:33;97786.91;;;11.57
75658;BMP280;64255;49.892;17.884;2023-04-25T13:19:20;97793.94;;;11.60
75658;BMP280;64255;49.892;17.884;2023-04-25T13:22:06;97796.88;;;11.56
75658;BMP280;64255;49.892;17.884;2023-04-25T13:24:53;97806.59;;;11.82
75658;BMP280;64255;49.892;17.884;2023-04-25T13:27:39;97807.09;;;11.35
75658;BMP280;64255;49.892;17.884;2023-04-25T13:30:26;97816.63;;;11.64
75658;BMP280;64255;49.892;17.884;2023-04-25T13:33:12;97820.25;;;11.67
75658;BMP280;64255;49.892;17.884;2023-04-25T13:36:01;97827.34;;;11.59
75658;BMP280;64255;49.892;17.884;2023-04-25T13:38:48;97818.44;;;10.96
75658;BMP280;64255;49.892;17.884;2023-04-25T13:41:34;97825.44;;;10.82
75658;BMP280;64255;49.892;17.884;2023-04-25T13:44:21;97813.03;;;10.79
75658;BMP280;64255;49.892;17.884;2023-04-25T13:47:07;97812.81;;;10.88
75658;BMP280;64255;49.892;17.884;2023-04-25T13:49:54;97802.72;;;11.26
75658;BMP280;64255;49.892;17.884;2023-04-25T13:52:40;97805.53;;;10.94
75658;BMP280;64255;49.892;17.884;2023-04-25T13:55:27;97802.69;;;11.20
75658;BMP280;64255;49.892;17.884;2023-04-25T13:58:13;97812.47;;;11.75
75658;BMP280;64255;49.892;17.884;2023-04-25T14:01:00;97804.66;;;11.65
75658;BMP280;64255;49.892;17.884;2023-04-25T14:03:46;97807.47;;;10.88
75658;BMP280;64255;49.892;17.884;2023-04-25T14:06:33;97818.22;;;11.05
75658;BMP280;64255;49.892;17.884;2023-04-25T14:09:20;97817.53;;;11.16
75658;BMP280;64255;49.892;17.884;2023-04-25T14:12:06;97821.91;;;11.19
75658;BMP280;64255;49.892;17.884;2023-04-25T14:14:53;97810.97;;;11.28
75658;BMP280;64255;49.892;17.884;2023-04-25T14:17:39;97817.59;;;11.67
75658;BMP280;64255;49.892;17.884;2023-04-25T14:20:26;97812.22;;;11.90
75658;BMP280;64255;49.892;17.884;2023-04-25T14:23:13;97815.16;;;11.75
75658;BMP280;64255;49.892;17.884;2023-04-25T14:25:59;97816.34;;;11.51
75658;BMP280;64255;49.892;17.884;2023-04-25T14:28:46;97827.09;;;11.57
75658;BMP280;64255;49.892;17.884;2023-04-25T14:31:33;97825.31;;;11.14
75658;BMP280;64255;49.892;17.884;2023-04-25T14:34:20;97833.19;;;11.63
75658;BMP280;64255;49.892;17.884;2023-04-25T14:37:06;97830.47;;;11.46
75658;BMP280;64255;49.892;17.884;2023-04-25T14:39:53;97826.31;;;11.22
75658;BMP280;64255;49.892;17.884;2023-04-25T14:42:40;97824.63;;;11.47
75658;BMP280;64255;49.892;17.884;2023-04-25T14:45:26;97821.47;;;11.32
75658;BMP280;64255;49.892;17.884;2023-04-25T14:48:13;97825.38;;;11.48
75658;BMP280;64255;49.892;17.884;2023-04-25T14:50:59;97827.34;;;11.76
75658;BMP280;64255;49.892;17.884;2023-04-25T14:53:46;97826.84;;;11.54
75658;BMP280;64255;49.892;17.884;2023-04-25T14:56:32;97824.66;;;11.70
75658;BMP280;64255;49.892;17.884;2023-04-25T14:59:19;97833.69;;;11.78
75658;BMP280;64255;49.892;17.884;2023-04-25T15:02:06;97831.72;;;11.73
75658;BMP280;64255;49.892;17.884;2023-04-25T15:04:53;97824.88;;;11.61
75658;BMP280;64255;49.892;17.884;2023-04-25T15:07:40;97834.13;;;11.37
75658;BMP280;64255;49.892;17.884;2023-04-25T15:10:26;97839.69;;;11.22
75658;BMP280;64255;49.892;17.884;2023-04-25T15:13:13;97851.09;;;11.11
75658;BMP280;64255;49.892;17.884;2023-04-25T15:15:59;97840.09;;;10.86
75658;BMP280;64255;49.892;17.884;2023-04-25T15:18:46;97850.81;;;10.92
75658;BMP280;64255;49.892;17.884;2023-04-25T15:21:33;97849.31;;;10.80
75658;BMP280;64255;49.892;17.884;2023-04-25T15:24:19;97848.75;;;10.64
75658;BMP280;64255;49.892;17.884;2023-04-25T15:27:06;97849.69;;;10.61
75658;BMP280;64255;49.892;17.884;2023-04-25T15:29:53;97847.72;;;10.50
75658;BMP280;64255;49.892;17.884;2023-04-25T15:32:39;97852.78;;;10.48
75658;BMP280;64255;49.892;17.884;2023-04-25T15:35:26;97849.91;;;10.52
75658;BMP280;64255;49.892;17.884;2023-04-25T15:38:12;97845.72;;;10.94
75658;BMP280;64255;49.892;17.884;2023-04-25T15:40:59;97848.41;;;11.05
75658;BMP280;64255;49.892;17.884;2023-04-25T15:43:47;97852.97;;;10.88
75658;BMP280;64255;49.892;17.884;2023-04-25T15:46:34;97843.03;;;10.94
75658;BMP280;64255;49.892;17.884;2023-04-25T15:49:20;97840.44;;;11.23
75658;BMP280;64255;49.892;17.884;2023-04-25T15:52:07;97844.53;;;11.12
75658;BMP280;64255;49.892;17.884;2023-04-25T15:54:53;97842.25;;;10.88
75658;BMP280;64255;49.892;17.884;2023-04-25T15:57:40;97842.97;;;10.77